sensor_id;sensor_type;location;lat;lon;timestamp;P1;durP1;ratioP1;P2;durP2;ratioP2
75939;SDS011;75809;44.872;20.642;2024-02-23T00:01:17;26.05;;;11.38;;
75939;SDS011;75809;44.872;20.642;2024-02-23T00:03:43;28.63;;;11.80;;
75939;SDS011;75809;44.872;20.642;2024-02-23T00:06:08;24.50;;;12.20;;
75939;SDS011;75809;44.872;20.642;2024-02-23T00:08:34;28.55;;;11.95;;
75939;SDS011;75809;44.872;20.642;2024-02-23T00:10:59;26.60;;;12.30;;
75939;SDS011;75809;44.872;20.642;2024-02-23T00:13:25;27.02;;;12.57;;
75939;SDS011;75809;44.872;20.642;2024-02-23T00:15:50;25.63;;;11.70;;
75939;SDS011;75809;44.872;20.642;2024-02-23T00:18:16;22.52;;;11.18;;
75939;SDS011;75809;44.872;20.642;2024-02-23T00:20:42;29.45;;;11.32;;
75939;SDS011;75809;44.872;20.642;2024-02-23T00:23:08;22.90;;;11.05;;
75939;SDS011;75809;44.872;20.642;2024-02-23T00:25:33;26.33;;;11.35;;
75939;SDS011;75809;44.872;20.642;2024-02-23T00:27:58;27.13;;;12.05;;
75939;SDS011;75809;44.872;20.642;2024-02-23T00:30:24;24.55;;;10.18;;
75939;SDS011;75809;44.872;20.642;2024-02-23T00:32:49;21.83;;;9.90;;
75939;SDS011;75809;44.872;20.642;2024-02-23T00:35:15;20.00;;;8.70;;
75939;SDS011;75809;44.872;20.642;2024-02-23T00:37:40;21.00;;;9.50;;
75939;SDS011;75809;44.872;20.642;2024-02-23T00:40:06;22.85;;;9.55;;
75939;SDS011;75809;44.872;20.642;2024-02-23T00:42:32;21.40;;;8.95;;
75939;SDS011;75809;44.872;20.642;2024-02-23T00:44:57;21.42;;;9.60;;
75939;SDS011;75809;44.872;20.642;2024-02-23T00:47:23;21.75;;;9.25;;
75939;SDS011;75809;44.872;20.642;2024-02-23T00:49:49;19.27;;;8.60;;
75939;SDS011;75809;44.872;20.642;2024-02-23T00:52:15;19.30;;;8.57;;
75939;SDS011;75809;44.872;20.642;2024-02-23T00:54:41;18.85;;;8.68;;
75939;SDS011;75809;44.872;20.642;2024-02-23T00:57:06;20.58;;;8.70;;
75939;SDS011;75809;44.872;20.642;2024-02-23T00:59:32;23.17;;;8.75;;
75939;SDS011;75809;44.872;20.642;2024-02-23T01:01:57;21.70;;;8.20;;
75939;SDS011;75809;44.872;20.642;2024-02-23T01:04:23;22.50;;;8.90;;
75939;SDS011;75809;44.872;20.642;2024-02-23T01:06:48;22.13;;;10.05;;
75939;SDS011;75809;44.872;20.642;2024-02-23T01:09:14;23.45;;;9.48;;
75939;SDS011;75809;44.872;20.642;2024-02-23T01:11:42;21.73;;;8.75;;
75939;SDS011;75809;44.872;20.642;2024-02-23T01:14:07;21.48;;;9.15;;
75939;SDS011;75809;44.872;20.642;2024-02-23T01:16:33;19.45;;;9.13;;
75939;SDS011;75809;44.872;20.642;2024-02-23T01:18:58;17.80;;;8.23;;
75939;SDS011;75809;44.872;20.642;2024-02-23T01:21:24;24.55;;;9.90;;
75939;SDS011;75809;44.872;20.642;2024-02-23T01:23:49;22.00;;;9.63;;
75939;SDS011;75809;44.872;20.642;2024-02-23T01:26:16;20.23;;;9.52;;
75939;SDS011;75809;44.872;20.642;2024-02-23T01:28:41;23.95;;;10.07;;
75939;SDS011;75809;44.872;20.642;2024-02-23T01:31:11;18.35;;;9.02;;
75939;SDS011;75809;44.872;20.642;2024-02-23T01:33:37;17.20;;;8.32;;
75939;SDS011;75809;44.872;20.642;2024-02-23T01:36:04;20.83;;;8.15;;
75939;SDS011;75809;44.872;20.642;2024-02-23T01:38:30;22.48;;;8.60;;
75939;SDS011;75809;44.872;20.642;2024-02-23T01:40:57;17.15;;;7.32;;
75939;SDS011;75809;44.872;20.642;2024-02-23T01:43:23;16.33;;;7.50;;
75939;SDS011;75809;44.872;20.642;2024-02-23T01:45:49;17.23;;;7.15;;
75939;SDS011;75809;44.872;20.642;2024-02-23T01:48:15;17.70;;;7.03;;
75939;SDS011;75809;44.872;20.642;2024-02-23T01:50:42;15.73;;;6.90;;
75939;SDS011;75809;44.872;20.642;2024-02-23T01:53:08;17.10;;;7.05;;
75939;SDS011;75809;44.872;20.642;2024-02-23T01:55:35;18.60;;;7.43;;
75939;SDS011;75809;44.872;20.642;2024-02-23T01:58:02;14.75;;;7.10;;
75939;SDS011;75809;44.872;20.642;2024-02-23T02:00:29;15.88;;;7.18;;
75939;SDS011;75809;44.872;20.642;2024-02-23T02:02:56;14.98;;;7.13;;
75939;SDS011;75809;44.872;20.642;2024-02-23T02:05:22;17.08;;;7.18;;
75939;SDS011;75809;44.872;20.642;2024-02-23T02:07:49;20.13;;;6.93;;
75939;SDS011;75809;44.872;20.642;2024-02-23T02:10:19;16.25;;;7.60;;
75939;SDS011;75809;44.872;20.642;2024-02-23T02:12:45;15.98;;;7.43;;
75939;SDS011;75809;44.872;20.642;2024-02-23T02:15:11;17.58;;;7.35;;
75939;SDS011;75809;44.872;20.642;2024-02-23T02:17:37;15.02;;;6.38;;
75939;SDS011;75809;44.872;20.642;2024-02-23T02:20:02;17.42;;;6.97;;
75939;SDS011;75809;44.872;20.642;2024-02-23T02:22:32;18.63;;;7.90;;
75939;SDS011;75809;44.872;20.642;2024-02-23T02:24:58;16.70;;;7.57;;
75939;SDS011;75809;44.872;20.642;2024-02-23T02:27:24;14.63;;;6.30;;
75939;SDS011;75809;44.872;20.642;2024-02-23T02:29:50;18.55;;;7.25;;
75939;SDS011;75809;44.872;20.642;2024-02-23T02:32:16;18.33;;;7.07;;
75939;SDS011;75809;44.872;20.642;2024-02-23T02:34:42;17.27;;;8.13;;
75939;SDS011;75809;44.872;20.642;2024-02-23T02:37:07;17.38;;;7.97;;
75939;SDS011;75809;44.872;20.642;2024-02-23T02:39:33;17.80;;;7.93;;
75939;SDS011;75809;44.872;20.642;2024-02-23T02:41:59;17.02;;;8.00;;
75939;SDS011;75809;44.872;20.642;2024-02-23T02:44:24;20.10;;;9.05;;
75939;SDS011;75809;44.872;20.642;2024-02-23T02:46:51;20.55;;;8.05;;
75939;SDS011;75809;44.872;20.642;2024-02-23T02:49:17;18.45;;;7.93;;
75939;SDS011;75809;44.872;20.642;2024-02-23T02:51:42;16.15;;;7.60;;
75939;SDS011;75809;44.872;20.642;2024-02-23T02:54:10;18.17;;;7.75;;
75939;SDS011;75809;44.872;20.642;2024-02-23T02:56:35;15.13;;;6.65;;
75939;SDS011;75809;44.872;20.642;2024-02-23T02:59:01;18.98;;;6.93;;
75939;SDS011;75809;44.872;20.642;2024-02-23T03:01:26;15.13;;;6.20;;
75939;SDS011;75809;44.872;20.642;2024-02-23T03:03:52;13.75;;;6.15;;
75939;SDS011;75809;44.872;20.642;2024-02-23T03:06:17;17.45;;;5.75;;
75939;SDS011;75809;44.872;20.642;2024-02-23T03:08:42;19.42;;;7.07;;
75939;SDS011;75809;44.872;20.642;2024-02-23T03:11:08;15.15;;;6.30;;
75939;SDS011;75809;44.872;20.642;2024-02-23T03:13:33;18.55;;;7.97;;
75939;SDS011;75809;44.872;20.642;2024-02-23T03:15:59;15.10;;;6.93;;
75939;SDS011;75809;44.872;20.642;2024-02-23T03:18:25;20.70;;;7.00;;
75939;SDS011;75809;44.872;20.642;2024-02-23T03:20:52;18.55;;;7.20;;
75939;SDS011;75809;44.872;20.642;2024-02-23T03:23:20;19.17;;;6.65;;
75939;SDS011;75809;44.872;20.642;2024-02-23T03:25:45;17.08;;;7.03;;
75939;SDS011;75809;44.872;20.642;2024-02-23T03:28:11;15.48;;;6.55;;
75939;SDS011;75809;44.872;20.642;2024-02-23T03:30:36;17.13;;;6.85;;
75939;SDS011;75809;44.872;20.642;2024-02-23T03:33:02;15.40;;;6.75;;
75939;SDS011;75809;44.872;20.642;2024-02-23T03:35:27;14.27;;;5.43;;
75939;SDS011;75809;44.872;20.642;2024-02-23T03:37:53;12.90;;;5.55;;
75939;SDS011;75809;44.872;20.642;2024-02-23T03:40:18;15.38;;;6.45;;
75939;SDS011;75809;44.872;20.642;2024-02-23T03:42:44;13.95;;;4.90;;
75939;SDS011;75809;44.872;20.642;2024-02-23T03:45:10;12.45;;;5.03;;
75939;SDS011;75809;44.872;20.642;2024-02-23T03:47:35;12.77;;;5.45;;
75939;SDS011;75809;44.872;20.642;2024-02-23T03:50:01;12.52;;;5.25;;
75939;SDS011;75809;44.872;20.642;2024-02-23T03:52:26;13.10;;;4.88;;
75939;SDS011;75809;44.872;20.642;2024-02-23T03:54:52;15.70;;;5.30;;
75939;SDS011;75809;44.872;20.642;2024-02-23T03:57:19;12.73;;;6.05;;
75939;SDS011;75809;44.872;20.642;2024-02-23T03:59:54;11.57;;;4.93;;
75939;SDS011;75809;44.872;20.642;2024-02-23T04:02:20;15.77;;;5.25;;
75939;SDS011;75809;44.872;20.642;2024-02-23T04:04:47;13.82;;;5.30;;
75939;SDS011;75809;44.872;20.642;2024-02-23T04:07:13;16.00;;;6.65;;
75939;SDS011;75809;44.872;20.642;2024-02-23T04:09:38;14.25;;;5.30;;
75939;SDS011;75809;44.872;20.642;2024-02-23T04:12:04;13.30;;;4.85;;
75939;SDS011;75809;44.872;20.642;2024-02-23T04:14:30;12.45;;;5.45;;
75939;SDS011;75809;44.872;20.642;2024-02-23T04:16:56;16.15;;;5.32;;
75939;SDS011;75809;44.872;20.642;2024-02-23T04:19:21;12.52;;;5.20;;
75939;SDS011;75809;44.872;20.642;2024-02-23T04:21:47;14.98;;;6.60;;
75939;SDS011;75809;44.872;20.642;2024-02-23T04:24:12;11.50;;;4.65;;
75939;SDS011;75809;44.872;20.642;2024-02-23T04:26:38;14.27;;;6.05;;
75939;SDS011;75809;44.872;20.642;2024-02-23T04:29:03;17.23;;;5.95;;
75939;SDS011;75809;44.872;20.642;2024-02-23T04:31:28;13.65;;;6.03;;
75939;SDS011;75809;44.872;20.642;2024-02-23T04:33:54;13.93;;;5.90;;
75939;SDS011;75809;44.872;20.642;2024-02-23T04:36:20;13.63;;;6.07;;
75939;SDS011;75809;44.872;20.642;2024-02-23T04:38:48;13.40;;;5.25;;
75939;SDS011;75809;44.872;20.642;2024-02-23T04:41:13;13.00;;;5.65;;
75939;SDS011;75809;44.872;20.642;2024-02-23T04:43:39;13.63;;;5.80;;
75939;SDS011;75809;44.872;20.642;2024-02-23T04:46:04;15.40;;;4.88;;
75939;SDS011;75809;44.872;20.642;2024-02-23T04:48:30;12.63;;;5.18;;
75939;SDS011;75809;44.872;20.642;2024-02-23T04:50:56;14.73;;;5.85;;
75939;SDS011;75809;44.872;20.642;2024-02-23T04:53:22;13.77;;;5.15;;
75939;SDS011;75809;44.872;20.642;2024-02-23T04:55:48;12.65;;;4.95;;
75939;SDS011;75809;44.872;20.642;2024-02-23T04:58:13;14.77;;;5.35;;
75939;SDS011;75809;44.872;20.642;2024-02-23T05:00:39;12.40;;;5.20;;
75939;SDS011;75809;44.872;20.642;2024-02-23T05:03:05;12.57;;;5.40;;
75939;SDS011;75809;44.872;20.642;2024-02-23T05:05:31;15.88;;;5.43;;
75939;SDS011;75809;44.872;20.642;2024-02-23T05:07:57;14.45;;;5.93;;
75939;SDS011;75809;44.872;20.642;2024-02-23T05:10:23;13.90;;;5.53;;
75939;SDS011;75809;44.872;20.642;2024-02-23T05:12:49;12.30;;;5.30;;
75939;SDS011;75809;44.872;20.642;2024-02-23T05:15:15;13.88;;;5.85;;
75939;SDS011;75809;44.872;20.642;2024-02-23T05:17:40;13.52;;;5.80;;
75939;SDS011;75809;44.872;20.642;2024-02-23T05:20:06;13.70;;;5.53;;
75939;SDS011;75809;44.872;20.642;2024-02-23T05:22:33;14.18;;;5.63;;
75939;SDS011;75809;44.872;20.642;2024-02-23T05:24:59;10.93;;;4.75;;
75939;SDS011;75809;44.872;20.642;2024-02-23T05:27:25;13.63;;;5.60;;
75939;SDS011;75809;44.872;20.642;2024-02-23T05:29:52;13.27;;;5.68;;
75939;SDS011;75809;44.872;20.642;2024-02-23T05:32:17;15.43;;;5.55;;
75939;SDS011;75809;44.872;20.642;2024-02-23T05:34:44;14.65;;;5.75;;
75939;SDS011;75809;44.872;20.642;2024-02-23T05:37:10;12.00;;;4.72;;
75939;SDS011;75809;44.872;20.642;2024-02-23T05:39:35;13.10;;;5.65;;
75939;SDS011;75809;44.872;20.642;2024-02-23T05:42:02;13.70;;;5.50;;
75939;SDS011;75809;44.872;20.642;2024-02-23T05:44:29;12.88;;;5.60;;
75939;SDS011;75809;44.872;20.642;2024-02-23T05:46:54;15.70;;;5.57;;
75939;SDS011;75809;44.872;20.642;2024-02-23T05:49:19;14.23;;;6.07;;
75939;SDS011;75809;44.872;20.642;2024-02-23T05:51:45;14.38;;;5.97;;
75939;SDS011;75809;44.872;20.642;2024-02-23T05:54:10;18.48;;;5.40;;
75939;SDS011;75809;44.872;20.642;2024-02-23T05:56:36;13.07;;;5.28;;
75939;SDS011;75809;44.872;20.642;2024-02-23T05:59:02;17.08;;;5.95;;
75939;SDS011;75809;44.872;20.642;2024-02-23T06:01:28;14.98;;;6.30;;
75939;SDS011;75809;44.872;20.642;2024-02-23T06:03:53;14.60;;;5.80;;
75939;SDS011;75809;44.872;20.642;2024-02-23T06:06:20;19.95;;;6.93;;
75939;SDS011;75809;44.872;20.642;2024-02-23T06:08:45;17.08;;;6.55;;
75939;SDS011;75809;44.872;20.642;2024-02-23T06:11:11;19.42;;;7.22;;
75939;SDS011;75809;44.872;20.642;2024-02-23T06:13:37;16.85;;;6.50;;
75939;SDS011;75809;44.872;20.642;2024-02-23T06:16:03;16.27;;;6.47;;
75939;SDS011;75809;44.872;20.642;2024-02-23T06:18:29;15.63;;;6.50;;
75939;SDS011;75809;44.872;20.642;2024-02-23T06:20:55;17.45;;;6.65;;
75939;SDS011;75809;44.872;20.642;2024-02-23T06:23:20;14.27;;;5.97;;
75939;SDS011;75809;44.872;20.642;2024-02-23T06:25:47;14.85;;;6.88;;
75939;SDS011;75809;44.872;20.642;2024-02-23T06:28:12;16.65;;;6.80;;
75939;SDS011;75809;44.872;20.642;2024-02-23T06:30:38;15.30;;;6.45;;
75939;SDS011;75809;44.872;20.642;2024-02-23T06:33:03;14.68;;;6.47;;
75939;SDS011;75809;44.872;20.642;2024-02-23T06:35:29;14.43;;;5.97;;
75939;SDS011;75809;44.872;20.642;2024-02-23T06:37:56;12.52;;;5.43;;
75939;SDS011;75809;44.872;20.642;2024-02-23T06:40:21;13.77;;;5.90;;
75939;SDS011;75809;44.872;20.642;2024-02-23T06:42:47;14.57;;;5.65;;
75939;SDS011;75809;44.872;20.642;2024-02-23T06:45:12;12.75;;;5.90;;
75939;SDS011;75809;44.872;20.642;2024-02-23T06:47:37;17.85;;;6.38;;
75939;SDS011;75809;44.872;20.642;2024-02-23T06:50:05;16.00;;;7.53;;
75939;SDS011;75809;44.872;20.642;2024-02-23T06:52:31;15.35;;;6.25;;
75939;SDS011;75809;44.872;20.642;2024-02-23T06:54:58;15.88;;;6.55;;
75939;SDS011;75809;44.872;20.642;2024-02-23T06:57:23;19.90;;;6.75;;
75939;SDS011;75809;44.872;20.642;2024-02-23T06:59:50;16.27;;;6.43;;
75939;SDS011;75809;44.872;20.642;2024-02-23T07:02:16;17.65;;;7.28;;
75939;SDS011;75809;44.872;20.642;2024-02-23T07:04:42;17.48;;;7.25;;
75939;SDS011;75809;44.872;20.642;2024-02-23T07:07:07;22.58;;;7.43;;
75939;SDS011;75809;44.872;20.642;2024-02-23T07:09:33;18.02;;;7.13;;
75939;SDS011;75809;44.872;20.642;2024-02-23T07:11:59;17.70;;;6.90;;
75939;SDS011;75809;44.872;20.642;2024-02-23T07:14:25;17.30;;;7.53;;
75939;SDS011;75809;44.872;20.642;2024-02-23T07:16:50;16.85;;;5.90;;
75939;SDS011;75809;44.872;20.642;2024-02-23T07:19:17;18.73;;;6.80;;
75939;SDS011;75809;44.872;20.642;2024-02-23T07:21:43;19.95;;;8.05;;
75939;SDS011;75809;44.872;20.642;2024-02-23T07:24:08;22.80;;;9.50;;
75939;SDS011;75809;44.872;20.642;2024-02-23T07:26:34;25.15;;;10.05;;
75939;SDS011;75809;44.872;20.642;2024-02-23T07:28:59;26.73;;;10.20;;
75939;SDS011;75809;44.872;20.642;2024-02-23T07:31:25;32.97;;;10.93;;
75939;SDS011;75809;44.872;20.642;2024-02-23T07:33:50;25.10;;;9.77;;
75939;SDS011;75809;44.872;20.642;2024-02-23T07:36:16;24.83;;;9.63;;
75939;SDS011;75809;44.872;20.642;2024-02-23T07:38:43;20.38;;;9.23;;
75939;SDS011;75809;44.872;20.642;2024-02-23T07:41:09;21.60;;;8.75;;
75939;SDS011;75809;44.872;20.642;2024-02-23T07:43:35;26.20;;;9.52;;
75939;SDS011;75809;44.872;20.642;2024-02-23T07:46:01;28.27;;;10.45;;
75939;SDS011;75809;44.872;20.642;2024-02-23T07:48:27;28.95;;;10.75;;
75939;SDS011;75809;44.872;20.642;2024-02-23T07:50:53;28.25;;;10.90;;
75939;SDS011;75809;44.872;20.642;2024-02-23T07:53:18;28.52;;;11.65;;
75939;SDS011;75809;44.872;20.642;2024-02-23T07:55:44;24.23;;;11.05;;
75939;SDS011;75809;44.872;20.642;2024-02-23T07:58:09;18.63;;;8.27;;
75939;SDS011;75809;44.872;20.642;2024-02-23T08:00:35;27.42;;;11.88;;
75939;SDS011;75809;44.872;20.642;2024-02-23T08:03:03;26.48;;;15.07;;
75939;SDS011;75809;44.872;20.642;2024-02-23T08:05:29;32.25;;;14.90;;
75939;SDS011;75809;44.872;20.642;2024-02-23T08:07:54;28.08;;;16.35;;
75939;SDS011;75809;44.872;20.642;2024-02-23T08:10:20;20.88;;;11.02;;
75939;SDS011;75809;44.872;20.642;2024-02-23T08:12:46;24.15;;;10.70;;
75939;SDS011;75809;44.872;20.642;2024-02-23T08:15:12;23.55;;;10.40;;
75939;SDS011;75809;44.872;20.642;2024-02-23T08:17:37;22.95;;;11.13;;
75939;SDS011;75809;44.872;20.642;2024-02-23T08:20:03;24.48;;;9.38;;
75939;SDS011;75809;44.872;20.642;2024-02-23T08:22:29;20.15;;;8.65;;
75939;SDS011;75809;44.872;20.642;2024-02-23T08:24:55;25.88;;;9.90;;
75939;SDS011;75809;44.872;20.642;2024-02-23T08:27:20;22.42;;;9.57;;
75939;SDS011;75809;44.872;20.642;2024-02-23T08:29:46;21.95;;;9.40;;
75939;SDS011;75809;44.872;20.642;2024-02-23T08:32:11;19.67;;;8.82;;
75939;SDS011;75809;44.872;20.642;2024-02-23T08:34:38;26.20;;;10.27;;
75939;SDS011;75809;44.872;20.642;2024-02-23T08:37:04;18.25;;;8.27;;
75939;SDS011;75809;44.872;20.642;2024-02-23T08:39:29;16.88;;;7.18;;
75939;SDS011;75809;44.872;20.642;2024-02-23T08:41:55;14.63;;;6.72;;
75939;SDS011;75809;44.872;20.642;2024-02-23T08:44:21;15.43;;;6.03;;
75939;SDS011;75809;44.872;20.642;2024-02-23T08:46:47;16.52;;;7.18;;
75939;SDS011;75809;44.872;20.642;2024-02-23T08:49:13;19.05;;;7.80;;
75939;SDS011;75809;44.872;20.642;2024-02-23T08:51:39;16.00;;;6.38;;
75939;SDS011;75809;44.872;20.642;2024-02-23T08:54:05;15.77;;;6.68;;
75939;SDS011;75809;44.872;20.642;2024-02-23T08:56:31;16.58;;;6.68;;
75939;SDS011;75809;44.872;20.642;2024-02-23T08:59:01;16.63;;;7.63;;
75939;SDS011;75809;44.872;20.642;2024-02-23T09:01:27;15.98;;;5.93;;
75939;SDS011;75809;44.872;20.642;2024-02-23T09:03:54;13.15;;;5.97;;
75939;SDS011;75809;44.872;20.642;2024-02-23T09:06:20;15.95;;;6.78;;
75939;SDS011;75809;44.872;20.642;2024-02-23T09:08:45;15.02;;;5.80;;
75939;SDS011;75809;44.872;20.642;2024-02-23T09:11:11;14.45;;;6.70;;
75939;SDS011;75809;44.872;20.642;2024-02-23T09:13:38;15.77;;;7.03;;
75939;SDS011;75809;44.872;20.642;2024-02-23T09:16:04;15.25;;;6.38;;
75939;SDS011;75809;44.872;20.642;2024-02-23T09:18:29;16.50;;;7.70;;
75939;SDS011;75809;44.872;20.642;2024-02-23T09:20:55;17.33;;;7.13;;
75939;SDS011;75809;44.872;20.642;2024-02-23T09:23:20;18.50;;;7.40;;
75939;SDS011;75809;44.872;20.642;2024-02-23T09:25:46;17.05;;;6.72;;
75939;SDS011;75809;44.872;20.642;2024-02-23T09:28:11;16.83;;;7.95;;
75939;SDS011;75809;44.872;20.642;2024-02-23T09:30:37;17.77;;;7.80;;
75939;SDS011;75809;44.872;20.642;2024-02-23T09:33:03;15.63;;;7.03;;
75939;SDS011;75809;44.872;20.642;2024-02-23T09:35:29;17.77;;;7.38;;
75939;SDS011;75809;44.872;20.642;2024-02-23T09:37:54;17.23;;;6.95;;
75939;SDS011;75809;44.872;20.642;2024-02-23T09:40:20;16.38;;;7.25;;
75939;SDS011;75809;44.872;20.642;2024-02-23T09:42:50;23.35;;;7.47;;
75939;SDS011;75809;44.872;20.642;2024-02-23T09:45:25;17.90;;;7.45;;
75939;SDS011;75809;44.872;20.642;2024-02-23T09:47:54;21.80;;;10.02;;
75939;SDS011;75809;44.872;20.642;2024-02-23T09:50:25;21.20;;;8.85;;
75939;SDS011;75809;44.872;20.642;2024-02-23T09:52:51;24.00;;;8.55;;
75939;SDS011;75809;44.872;20.642;2024-02-23T09:55:17;21.05;;;8.35;;
75939;SDS011;75809;44.872;20.642;2024-02-23T09:57:44;16.33;;;7.53;;
75939;SDS011;75809;44.872;20.642;2024-02-23T10:00:12;21.33;;;7.88;;
75939;SDS011;75809;44.872;20.642;2024-02-23T10:02:40;17.90;;;8.07;;
75939;SDS011;75809;44.872;20.642;2024-02-23T10:05:06;19.17;;;8.07;;
75939;SDS011;75809;44.872;20.642;2024-02-23T10:07:35;20.67;;;8.65;;
75939;SDS011;75809;44.872;20.642;2024-02-23T10:10:00;21.25;;;7.68;;
75939;SDS011;75809;44.872;20.642;2024-02-23T10:12:26;15.93;;;7.43;;
75939;SDS011;75809;44.872;20.642;2024-02-23T10:14:52;16.42;;;7.50;;
75939;SDS011;75809;44.872;20.642;2024-02-23T10:17:18;17.73;;;7.78;;
75939;SDS011;75809;44.872;20.642;2024-02-23T10:19:45;17.90;;;7.75;;
75939;SDS011;75809;44.872;20.642;2024-02-23T10:22:11;15.57;;;6.65;;
75939;SDS011;75809;44.872;20.642;2024-02-23T10:24:36;17.38;;;7.35;;
75939;SDS011;75809;44.872;20.642;2024-02-23T10:27:02;14.80;;;6.65;;
75939;SDS011;75809;44.872;20.642;2024-02-23T10:29:28;15.02;;;6.60;;
75939;SDS011;75809;44.872;20.642;2024-02-23T10:31:53;17.27;;;7.10;;
75939;SDS011;75809;44.872;20.642;2024-02-23T10:34:22;15.32;;;6.03;;
75939;SDS011;75809;44.872;20.642;2024-02-23T10:36:49;17.65;;;6.82;;
75939;SDS011;75809;44.872;20.642;2024-02-23T10:39:16;18.10;;;6.63;;
75939;SDS011;75809;44.872;20.642;2024-02-23T10:41:46;20.40;;;7.40;;
75939;SDS011;75809;44.872;20.642;2024-02-23T10:44:16;17.90;;;7.30;;
75939;SDS011;75809;44.872;20.642;2024-02-23T10:46:43;17.35;;;6.68;;
75939;SDS011;75809;44.872;20.642;2024-02-23T10:49:09;14.75;;;6.10;;
75939;SDS011;75809;44.872;20.642;2024-02-23T10:51:38;17.23;;;7.43;;
75939;SDS011;75809;44.872;20.642;2024-02-23T10:54:05;20.15;;;7.03;;
75939;SDS011;75809;44.872;20.642;2024-02-23T10:56:31;19.38;;;7.07;;
75939;SDS011;75809;44.872;20.642;2024-02-23T10:58:57;13.88;;;6.80;;
75939;SDS011;75809;44.872;20.642;2024-02-23T11:01:22;21.60;;;6.75;;
75939;SDS011;75809;44.872;20.642;2024-02-23T11:03:49;18.00;;;6.55;;
75939;SDS011;75809;44.872;20.642;2024-02-23T11:06:18;19.10;;;6.57;;
75939;SDS011;75809;44.872;20.642;2024-02-23T11:08:46;18.60;;;6.50;;
75939;SDS011;75809;44.872;20.642;2024-02-23T11:11:18;17.13;;;6.30;;
75939;SDS011;75809;44.872;20.642;2024-02-23T11:13:44;17.75;;;6.07;;
75939;SDS011;75809;44.872;20.642;2024-02-23T11:16:11;15.90;;;5.85;;
75939;SDS011;75809;44.872;20.642;2024-02-23T11:18:46;16.27;;;6.18;;
75939;SDS011;75809;44.872;20.642;2024-02-23T11:21:12;16.10;;;5.82;;
75939;SDS011;75809;44.872;20.642;2024-02-23T11:23:39;12.93;;;6.13;;
75939;SDS011;75809;44.872;20.642;2024-02-23T11:26:15;17.35;;;6.40;;
75939;SDS011;75809;44.872;20.642;2024-02-23T11:31:13;14.70;;;6.10;;
75939;SDS011;75809;44.872;20.642;2024-02-23T11:33:39;18.33;;;6.20;;
75939;SDS011;75809;44.872;20.642;2024-02-23T11:36:08;13.15;;;5.75;;
75939;SDS011;75809;44.872;20.642;2024-02-23T11:38:34;15.27;;;6.28;;
75939;SDS011;75809;44.872;20.642;2024-02-23T11:41:00;15.88;;;6.05;;
75939;SDS011;75809;44.872;20.642;2024-02-23T11:43:27;15.02;;;6.32;;
75939;SDS011;75809;44.872;20.642;2024-02-23T11:45:53;16.40;;;5.43;;
75939;SDS011;75809;44.872;20.642;2024-02-23T11:48:18;16.90;;;6.38;;
75939;SDS011;75809;44.872;20.642;2024-02-23T11:50:44;13.60;;;6.05;;
75939;SDS011;75809;44.872;20.642;2024-02-23T11:53:10;12.63;;;5.13;;
75939;SDS011;75809;44.872;20.642;2024-02-23T11:55:35;13.63;;;5.35;;
75939;SDS011;75809;44.872;20.642;2024-02-23T11:58:01;15.82;;;6.13;;
75939;SDS011;75809;44.872;20.642;2024-02-23T12:00:27;13.68;;;4.80;;
75939;SDS011;75809;44.872;20.642;2024-02-23T12:02:55;16.35;;;5.88;;
75939;SDS011;75809;44.872;20.642;2024-02-23T12:05:20;16.65;;;5.68;;
75939;SDS011;75809;44.872;20.642;2024-02-23T12:07:46;15.73;;;5.47;;
75939;SDS011;75809;44.872;20.642;2024-02-23T12:10:12;12.82;;;4.57;;
75939;SDS011;75809;44.872;20.642;2024-02-23T12:12:38;11.55;;;4.05;;
75939;SDS011;75809;44.872;20.642;2024-02-23T12:15:05;12.68;;;4.75;;
75939;SDS011;75809;44.872;20.642;2024-02-23T12:17:31;9.35;;;3.83;;
75939;SDS011;75809;44.872;20.642;2024-02-23T12:20:00;12.38;;;3.83;;
75939;SDS011;75809;44.872;20.642;2024-02-23T12:22:26;11.23;;;4.13;;
75939;SDS011;75809;44.872;20.642;2024-02-23T12:24:52;11.50;;;4.00;;
75939;SDS011;75809;44.872;20.642;2024-02-23T12:27:17;10.98;;;3.92;;
75939;SDS011;75809;44.872;20.642;2024-02-23T12:29:52;10.02;;;4.03;;
75939;SDS011;75809;44.872;20.642;2024-02-23T12:32:19;10.02;;;4.00;;
75939;SDS011;75809;44.872;20.642;2024-02-23T12:34:46;13.40;;;4.60;;
75939;SDS011;75809;44.872;20.642;2024-02-23T12:37:14;12.77;;;4.35;;
75939;SDS011;75809;44.872;20.642;2024-02-23T12:39:41;10.25;;;3.70;;
75939;SDS011;75809;44.872;20.642;2024-02-23T12:42:07;10.27;;;4.30;;
75939;SDS011;75809;44.872;20.642;2024-02-23T12:44:33;15.95;;;4.30;;
75939;SDS011;75809;44.872;20.642;2024-02-23T12:46:58;13.15;;;4.07;;
75939;SDS011;75809;44.872;20.642;2024-02-23T12:49:24;11.18;;;4.43;;
75939;SDS011;75809;44.872;20.642;2024-02-23T12:51:49;10.40;;;3.67;;
75939;SDS011;75809;44.872;20.642;2024-02-23T12:54:14;9.15;;;3.40;;
75939;SDS011;75809;44.872;20.642;2024-02-23T12:56:40;8.32;;;2.90;;
75939;SDS011;75809;44.872;20.642;2024-02-23T12:59:05;9.68;;;2.85;;
75939;SDS011;75809;44.872;20.642;2024-02-23T13:01:32;9.43;;;3.35;;
75939;SDS011;75809;44.872;20.642;2024-02-23T13:04:01;12.82;;;4.38;;
75939;SDS011;75809;44.872;20.642;2024-02-23T13:06:27;10.45;;;3.35;;
75939;SDS011;75809;44.872;20.642;2024-02-23T13:08:52;11.55;;;4.22;;
75939;SDS011;75809;44.872;20.642;2024-02-23T13:11:18;7.80;;;3.40;;
75939;SDS011;75809;44.872;20.642;2024-02-23T13:13:43;7.82;;;3.45;;
75939;SDS011;75809;44.872;20.642;2024-02-23T13:16:09;11.60;;;3.80;;
75939;SDS011;75809;44.872;20.642;2024-02-23T13:18:35;12.85;;;3.58;;
75939;SDS011;75809;44.872;20.642;2024-02-23T13:21:00;9.02;;;3.63;;
75939;SDS011;75809;44.872;20.642;2024-02-23T13:23:26;12.05;;;3.35;;
75939;SDS011;75809;44.872;20.642;2024-02-23T13:25:51;12.00;;;4.20;;
75939;SDS011;75809;44.872;20.642;2024-02-23T13:28:17;10.07;;;3.40;;
75939;SDS011;75809;44.872;20.642;2024-02-23T13:30:42;10.88;;;3.97;;
75939;SDS011;75809;44.872;20.642;2024-02-23T13:33:10;10.15;;;3.30;;
75939;SDS011;75809;44.872;20.642;2024-02-23T13:35:36;9.45;;;3.00;;
75939;SDS011;75809;44.872;20.642;2024-02-23T13:38:02;10.65;;;4.45;;
75939;SDS011;75809;44.872;20.642;2024-02-23T13:40:30;9.27;;;3.22;;
75939;SDS011;75809;44.872;20.642;2024-02-23T13:42:56;12.20;;;4.70;;
75939;SDS011;75809;44.872;20.642;2024-02-23T13:45:22;12.55;;;3.65;;
75939;SDS011;75809;44.872;20.642;2024-02-23T13:47:59;12.35;;;3.92;;
75939;SDS011;75809;44.872;20.642;2024-02-23T13:50:28;10.88;;;4.15;;
75939;SDS011;75809;44.872;20.642;2024-02-23T13:52:55;11.55;;;4.65;;
75939;SDS011;75809;44.872;20.642;2024-02-23T13:55:20;11.98;;;4.22;;
75939;SDS011;75809;44.872;20.642;2024-02-23T13:57:47;18.65;;;8.00;;
75939;SDS011;75809;44.872;20.642;2024-02-23T14:00:15;10.57;;;4.57;;
75939;SDS011;75809;44.872;20.642;2024-02-23T14:02:41;14.75;;;5.88;;
75939;SDS011;75809;44.872;20.642;2024-02-23T14:05:07;18.40;;;6.18;;
75939;SDS011;75809;44.872;20.642;2024-02-23T14:07:33;25.40;;;10.13;;
75939;SDS011;75809;44.872;20.642;2024-02-23T14:09:58;21.13;;;9.48;;
75939;SDS011;75809;44.872;20.642;2024-02-23T14:12:24;19.17;;;9.52;;
75939;SDS011;75809;44.872;20.642;2024-02-23T14:14:50;19.75;;;9.35;;
75939;SDS011;75809;44.872;20.642;2024-02-23T14:17:15;13.85;;;5.85;;